Aeroporto :
LOGIN :

Iscrizione | Disclaimer

   EN    FR    IT 

 










Sommario :    VFR   VFR Marginale   IFR   IFR Intensivo   IFR Molto Intensivo
Visibilità : 
Base nubi : 
>= 8 km
>= 3000ft
5 / 8 km
1000 / 3000 ft
1500m / 5 km
500 / 1000 ft
800 / 1500m
200 / 500 ft
< 800m
< 200 ft
Simboli :   Temporali  Nebbia  Neve Forte  Precipitazioni Forti  Vento > 20 kt
SIGMETs :   Varie  Temporali  Ghiacco  Turbolenza  Onda orograficha  Ceneri Vulcaniche






- Altitudine del aeroporto : 157 ft
- Codice IATA : LIL


LFQQ - Lille Lesquin

ULTIMO METAR :
  • 281300Z AUTO 18020KT 140V210 9999 -RA BKN022 BKN030 BKN036 05/02 Q1012 TEMPO 17020G30KT 3000 RADZ BKN007 OVC013

METARs OBSOLETI :
  • 281230Z AUTO 18021KT 9999 SCT025 BKN044 BKN056 06/01 Q1012 TEMPO 17020G30KT 3000 RADZ BKN007 OVC013
  • 281200Z AUTO 18018KT CAVOK 06/02 Q1013 NOSIG
  • 281130Z AUTO 18016KT 9999 FEW048 SCT064 BKN078 06/01 Q1014 BECMG 18020G30KT 4000 RA OVC013
  • 281100Z AUTO 18016KT CAVOK 05/01 Q1014 BECMG 18020G30KT 4000 RA OVC013
  • 281030Z AUTO 17011KT CAVOK 05/01 Q1015 BECMG 18020G30KT 4000 RA OVC013

TAF AMD TAF LFQQ
Valido dal 28 a 12 ore il 29 a 18 ore UTC


281225Z 2812/2918 16013KT 9999 OVC030
TEMPO 2812/2819 17020G30KT 3000 RADZ BKN007 OVC013
TEMPO 2819/2823 3000 DZ OVC004
BECMG 2819/2821 22015KT
TEMPO 2906/2910 19020G32KT
TEMPO 2910/2912 27020G45KT 3000 RA BKN012 OVC020
FM291200 28020G30KT 9999 BKN030
PROB40
TEMPO 2912/2918 28030G50KT 3000 SHRA BKN020TCU
ATIS : +33 3 20 16 19 54



MetMap, La meteo Aeronautica in un colpo d'occhio ! - Copyright ORBIFLY Dicembre 2007 - Disclaimer

ORBIFLY MET'MAP TEAM :

Programmazione e sviluppo : Alexandra Zaïnal
Concezione : Baudouin d'Aumeries
Aiuto per la programmazione : Marc-Olivier Méhu
Supporto tecnico e logistico : Manuel Goepfert
Aiuto per la traduzione : Arnaldo La Scala

Contatto : metmap@orbifly.com




FONTI E CREDITI :

   NOAA